sensor_id;sensor_type;location;lat;lon;timestamp;pressure;altitude;pressure_sealevel;temperature;humidity
11172;BME280;5642;50.830;12.082;2023-12-20T00:02:14;99169.38;;;9.31;48.45
11172;BME280;5642;50.830;12.082;2023-12-20T00:05:00;99083.03;;;8.78;48.46
11172;BME280;5642;50.830;12.082;2023-12-20T00:07:37;99132.47;;;9.14;48.45
11172;BME280;5642;50.830;12.082;2023-12-20T00:10:08;99159.13;;;9.25;48.49
11172;BME280;5642;50.830;12.082;2023-12-20T00:12:54;99142.97;;;9.12;48.86
11172;BME280;5642;50.830;12.082;2023-12-20T00:15:36;99127.66;;;9.00;48.14
11172;BME280;5642;50.830;12.082;2023-12-20T00:18:17;99138.78;;;9.07;48.18
11172;BME280;5642;50.830;12.082;2023-12-20T00:20:45;99133.75;;;9.00;48.48
11172;BME280;5642;50.830;12.082;2023-12-20T00:23:25;99129.47;;;8.98;48.57
11172;BME280;5642;50.830;12.082;2023-12-20T00:26:18;99130.31;;;8.98;48.60
11172;BME280;5642;50.830;12.082;2023-12-20T00:28:45;99119.44;;;8.83;48.43
11172;BME280;5642;50.830;12.082;2023-12-20T00:31:29;99133.09;;;8.92;48.53
11172;BME280;5642;50.830;12.082;2023-12-20T00:34:17;99149.59;;;8.94;48.59
11172;BME280;5642;50.830;12.082;2023-12-20T00:36:44;99120.47;;;8.79;48.49
11172;BME280;5642;50.830;12.082;2023-12-20T00:39:21;99128.19;;;8.82;48.64
11172;BME280;5642;50.830;12.082;2023-12-20T00:42:02;99136.81;;;8.85;48.71
11172;BME280;5642;50.830;12.082;2023-12-20T00:44:52;99116.97;;;8.78;49.08
11172;BME280;5642;50.830;12.082;2023-12-20T00:47:35;99121.88;;;8.89;48.73
11172;BME280;5642;50.830;12.082;2023-12-20T00:50:09;99119.78;;;9.01;48.87
11172;BME280;5642;50.830;12.082;2023-12-20T00:52:36;99099.13;;;8.94;48.86
11172;BME280;5642;50.830;12.082;2023-12-20T00:55:13;99112.56;;;9.10;48.62
11172;BME280;5642;50.830;12.082;2023-12-20T00:57:39;99101.50;;;9.01;48.88
11172;BME280;5642;50.830;12.082;2023-12-20T01:00:06;99107.41;;;9.08;48.62
11172;BME280;5642;50.830;12.082;2023-12-20T01:02:53;99093.66;;;9.01;48.52
11172;BME280;5642;50.830;12.082;2023-12-20T01:05:30;99113.31;;;9.13;48.47
11172;BME280;5642;50.830;12.082;2023-12-20T01:07:57;99086.69;;;9.02;48.74
11172;BME280;5642;50.830;12.082;2023-12-20T01:10:32;99118.38;;;9.19;48.62
11172;BME280;5642;50.830;12.082;2023-12-20T01:13:09;99086.53;;;9.07;48.71
11172;BME280;5642;50.830;12.082;2023-12-20T01:15:42;99076.97;;;9.06;48.60
11172;BME280;5642;50.830;12.082;2023-12-20T01:18:33;99086.38;;;9.11;48.54
11172;BME280;5642;50.830;12.082;2023-12-20T01:21:05;99113.53;;;9.35;48.61
11172;BME280;5642;50.830;12.082;2023-12-20T01:23:34;99110.09;;;9.33;48.75
11172;BME280;5642;50.830;12.082;2023-12-20T01:26:10;99113.53;;;9.35;48.50
11172;BME280;5642;50.830;12.082;2023-12-20T01:28:46;99106.59;;;9.34;48.81
11172;BME280;5642;50.830;12.082;2023-12-20T01:31:17;99074.09;;;9.15;48.57
11172;BME280;5642;50.830;12.082;2023-12-20T01:33:44;99045.88;;;8.98;48.86
11172;BME280;5642;50.830;12.082;2023-12-20T01:36:20;99030.63;;;8.84;48.81
11172;BME280;5642;50.830;12.082;2023-12-20T01:39:00;99067.22;;;9.11;48.81
11172;BME280;5642;50.830;12.082;2023-12-20T01:41:40;99084.34;;;9.21;48.74
11172;BME280;5642;50.830;12.082;2023-12-20T01:44:15;99077.41;;;9.20;48.86
11172;BME280;5642;50.830;12.082;2023-12-20T01:46:42;99069.66;;;9.17;49.41
11172;BME280;5642;50.830;12.082;2023-12-20T01:49:27;99071.47;;;9.15;48.76
11172;BME280;5642;50.830;12.082;2023-12-20T01:52:16;99058.72;;;9.04;49.08
11172;BME280;5642;50.830;12.082;2023-12-20T01:54:54;99051.06;;;8.99;48.90
11172;BME280;5642;50.830;12.082;2023-12-20T01:57:34;99073.28;;;9.13;48.86
11172;BME280;5642;50.830;12.082;2023-12-20T02:00:19;99071.53;;;9.13;49.09
11172;BME280;5642;50.830;12.082;2023-12-20T02:02:50;99009.75;;;8.83;49.11
11172;BME280;5642;50.830;12.082;2023-12-20T02:05:19;99054.09;;;9.14;48.62
11172;BME280;5642;50.830;12.082;2023-12-20T02:07:54;99042.00;;;9.10;48.93
11172;BME280;5642;50.830;12.082;2023-12-20T02:10:26;99059.03;;;9.23;48.80
11172;BME280;5642;50.830;12.082;2023-12-20T02:12:56;99055.41;;;9.27;48.72
11172;BME280;5642;50.830;12.082;2023-12-20T02:15:29;99060.47;;;9.31;48.64
11172;BME280;5642;50.830;12.082;2023-12-20T02:17:56;99027.91;;;9.15;49.11
11172;BME280;5642;50.830;12.082;2023-12-20T02:20:30;99015.13;;;9.06;49.17
11172;BME280;5642;50.830;12.082;2023-12-20T02:23:02;98948.19;;;8.76;49.04
11172;BME280;5642;50.830;12.082;2023-12-20T02:25:29;99054.09;;;9.40;48.57
11172;BME280;5642;50.830;12.082;2023-12-20T02:28:03;99008.84;;;9.12;48.51
11172;BME280;5642;50.830;12.082;2023-12-20T02:30:42;99032.59;;;9.32;48.63
11172;BME280;5642;50.830;12.082;2023-12-20T02:33:35;99042.13;;;9.33;48.88
11172;BME280;5642;50.830;12.082;2023-12-20T02:36:28;99041.19;;;9.35;48.91
11172;BME280;5642;50.830;12.082;2023-12-20T02:38:55;99017.22;;;9.23;48.88
11172;BME280;5642;50.830;12.082;2023-12-20T02:41:32;99022.25;;;9.29;48.73
11172;BME280;5642;50.830;12.082;2023-12-20T02:44:14;99040.19;;;9.39;48.86
11172;BME280;5642;50.830;12.082;2023-12-20T02:46:54;99000.69;;;9.22;49.15
11172;BME280;5642;50.830;12.082;2023-12-20T02:49:28;99033.88;;;9.45;48.79
11172;BME280;5642;50.830;12.082;2023-12-20T02:52:12;98935.00;;;8.80;48.83
11172;BME280;5642;50.830;12.082;2023-12-20T02:54:45;98948.50;;;8.93;48.87
11172;BME280;5642;50.830;12.082;2023-12-20T02:57:12;98998.84;;;9.24;49.10
11172;BME280;5642;50.830;12.082;2023-12-20T02:59:38;99023.44;;;9.45;48.93
11172;BME280;5642;50.830;12.082;2023-12-20T03:02:27;98962.69;;;9.12;48.93
11172;BME280;5642;50.830;12.082;2023-12-20T03:05:03;99039.44;;;9.62;48.89
11172;BME280;5642;50.830;12.082;2023-12-20T03:07:29;99015.19;;;9.57;48.73
11172;BME280;5642;50.830;12.082;2023-12-20T03:10:06;99008.59;;;9.46;48.97
11172;BME280;5642;50.830;12.082;2023-12-20T03:12:33;99039.44;;;9.62;48.52
11172;BME280;5642;50.830;12.082;2023-12-20T03:15:14;99019.72;;;9.52;49.01
11172;BME280;5642;50.830;12.082;2023-12-20T03:17:44;99008.78;;;9.41;48.57
11172;BME280;5642;50.830;12.082;2023-12-20T03:20:22;98957.63;;;9.08;48.62
11172;BME280;5642;50.830;12.082;2023-12-20T03:23:04;99029.34;;;9.52;48.81
11172;BME280;5642;50.830;12.082;2023-12-20T03:25:32;99030.28;;;9.49;49.00
11172;BME280;5642;50.830;12.082;2023-12-20T03:28:17;99034.63;;;9.50;49.06
11172;BME280;5642;50.830;12.082;2023-12-20T03:30:55;99027.63;;;9.51;48.90
11172;BME280;5642;50.830;12.082;2023-12-20T03:33:21;99012.84;;;9.50;49.00
11172;BME280;5642;50.830;12.082;2023-12-20T03:36:02;98942.72;;;9.10;48.86
11172;BME280;5642;50.830;12.082;2023-12-20T03:38:50;99016.97;;;9.57;48.85
11172;BME280;5642;50.830;12.082;2023-12-20T03:41:22;99002.81;;;9.62;49.01
11172;BME280;5642;50.830;12.082;2023-12-20T03:44:04;99007.88;;;9.67;49.04
11172;BME280;5642;50.830;12.082;2023-12-20T03:46:31;99026.72;;;9.76;49.19
11172;BME280;5642;50.830;12.082;2023-12-20T03:49:22;99022.38;;;9.77;48.74
11172;BME280;5642;50.830;12.082;2023-12-20T03:51:57;99026.72;;;9.76;49.00
11172;BME280;5642;50.830;12.082;2023-12-20T03:54:24;99008.66;;;9.70;48.94
11172;BME280;5642;50.830;12.082;2023-12-20T03:56:55;99017.72;;;9.85;49.08
11172;BME280;5642;50.830;12.082;2023-12-20T03:59:36;99014.25;;;9.85;49.13
11172;BME280;5642;50.830;12.082;2023-12-20T04:02:20;99013.66;;;9.76;49.03
11172;BME280;5642;50.830;12.082;2023-12-20T04:04:48;98965.66;;;9.53;48.74
11172;BME280;5642;50.830;12.082;2023-12-20T04:07:14;99025.56;;;9.85;48.90
11172;BME280;5642;50.830;12.082;2023-12-20T04:09:56;98989.78;;;9.61;48.88
11172;BME280;5642;50.830;12.082;2023-12-20T04:12:28;99020.28;;;9.87;49.08
11172;BME280;5642;50.830;12.082;2023-12-20T04:14:58;99033.94;;;9.95;48.76
11172;BME280;5642;50.830;12.082;2023-12-20T04:17:32;99034.88;;;9.94;48.84
11172;BME280;5642;50.830;12.082;2023-12-20T04:19:58;99044.25;;;9.99;49.00
11172;BME280;5642;50.830;12.082;2023-12-20T04:22:39;99045.25;;;9.95;49.13
11172;BME280;5642;50.830;12.082;2023-12-20T04:25:16;99006.50;;;9.81;48.86
11172;BME280;5642;50.830;12.082;2023-12-20T04:28:02;99028.59;;;9.98;48.96
11172;BME280;5642;50.830;12.082;2023-12-20T04:30:35;99035.00;;;9.89;49.09
11172;BME280;5642;50.830;12.082;2023-12-20T04:33:08;99046.06;;;9.97;48.74
11172;BME280;5642;50.830;12.082;2023-12-20T04:35:39;99050.41;;;9.98;48.99
11172;BME280;5642;50.830;12.082;2023-12-20T04:38:38;99042.75;;;9.92;48.94
11172;BME280;5642;50.830;12.082;2023-12-20T04:41:04;99020.66;;;9.76;48.99
11172;BME280;5642;50.830;12.082;2023-12-20T04:43:50;99047.34;;;9.86;49.35
11172;BME280;5642;50.830;12.082;2023-12-20T04:46:16;99055.69;;;9.97;48.79
11172;BME280;5642;50.830;12.082;2023-12-20T04:49:00;99050.44;;;9.97;48.92
11172;BME280;5642;50.830;12.082;2023-12-20T04:51:40;99053.97;;;9.96;49.25
11172;BME280;5642;50.830;12.082;2023-12-20T04:54:17;99052.47;;;9.89;49.25
11172;BME280;5642;50.830;12.082;2023-12-20T04:57:07;99048.72;;;9.96;48.99
11172;BME280;5642;50.830;12.082;2023-12-20T04:59:53;98991.06;;;9.49;48.86
11172;BME280;5642;50.830;12.082;2023-12-20T05:02:39;98984.78;;;9.55;49.30
11172;BME280;5642;50.830;12.082;2023-12-20T05:05:20;98983.78;;;9.59;49.16
11172;BME280;5642;50.830;12.082;2023-12-20T05:08:02;99039.16;;;9.95;49.28
11172;BME280;5642;50.830;12.082;2023-12-20T05:10:48;99001.06;;;9.63;48.91
11172;BME280;5642;50.830;12.082;2023-12-20T05:13:30;99047.81;;;9.97;49.05
11172;BME280;5642;50.830;12.082;2023-12-20T05:16:05;99026.44;;;9.86;49.01
11172;BME280;5642;50.830;12.082;2023-12-20T05:18:50;99052.78;;;10.04;49.10
11172;BME280;5642;50.830;12.082;2023-12-20T05:21:27;99016.19;;;9.79;49.31
11172;BME280;5642;50.830;12.082;2023-12-20T05:24:00;99075.06;;;10.16;49.06
11172;BME280;5642;50.830;12.082;2023-12-20T05:26:42;99054.34;;;10.10;49.31
11172;BME280;5642;50.830;12.082;2023-12-20T05:29:15;99041.47;;;10.04;49.08
11172;BME280;5642;50.830;12.082;2023-12-20T05:31:58;99062.66;;;10.23;49.06
11172;BME280;5642;50.830;12.082;2023-12-20T05:34:40;99078.25;;;10.26;49.15
11172;BME280;5642;50.830;12.082;2023-12-20T05:37:24;99020.84;;;9.95;49.04
11172;BME280;5642;50.830;12.082;2023-12-20T05:40:06;99057.75;;;10.12;48.96
11172;BME280;5642;50.830;12.082;2023-12-20T05:42:59;99078.28;;;10.24;49.00
11172;BME280;5642;50.830;12.082;2023-12-20T05:45:38;99105.88;;;10.34;49.17
11172;BME280;5642;50.830;12.082;2023-12-20T05:48:05;99070.84;;;10.12;49.12
11172;BME280;5642;50.830;12.082;2023-12-20T05:50:51;99112.78;;;10.37;49.19
11172;BME280;5642;50.830;12.082;2023-12-20T05:53:22;99106.53;;;10.39;49.13
11172;BME280;5642;50.830;12.082;2023-12-20T05:56:07;99092.78;;;10.34;49.03
11172;BME280;5642;50.830;12.082;2023-12-20T05:58:53;99104.78;;;10.40;49.15
11172;BME280;5642;50.830;12.082;2023-12-20T06:01:52;99029.69;;;9.92;49.23
11172;BME280;5642;50.830;12.082;2023-12-20T06:04:37;99063.03;;;10.10;49.28
11172;BME280;5642;50.830;12.082;2023-12-20T06:07:24;99106.59;;;10.38;49.08
11172;BME280;5642;50.830;12.082;2023-12-20T06:10:09;99114.19;;;10.45;49.22
11172;BME280;5642;50.830;12.082;2023-12-20T06:12:58;99066.38;;;10.15;49.15
11172;BME280;5642;50.830;12.082;2023-12-20T06:15:39;99059.53;;;10.11;49.18
11172;BME280;5642;50.830;12.082;2023-12-20T06:18:17;99029.47;;;9.98;49.13
11172;BME280;5642;50.830;12.082;2023-12-20T06:21:01;99023.31;;;9.99;49.17
11172;BME280;5642;50.830;12.082;2023-12-20T06:23:59;99047.06;;;10.19;49.17
11172;BME280;5642;50.830;12.082;2023-12-20T06:26:47;99030.97;;;10.05;49.37
11172;BME280;5642;50.830;12.082;2023-12-20T06:29:45;99089.94;;;10.40;49.13
11172;BME280;5642;50.830;12.082;2023-12-20T06:32:24;99060.09;;;10.21;49.21
11172;BME280;5642;50.830;12.082;2023-12-20T06:35:16;99104.69;;;10.43;49.39
11172;BME280;5642;50.830;12.082;2023-12-20T06:38:11;99117.66;;;10.46;49.08
11172;BME280;5642;50.830;12.082;2023-12-20T06:40:50;99121.00;;;10.51;49.18
11172;BME280;5642;50.830;12.082;2023-12-20T06:43:40;99119.28;;;10.50;48.99
11172;BME280;5642;50.830;12.082;2023-12-20T06:46:16;99061.22;;;10.12;49.37
11172;BME280;5642;50.830;12.082;2023-12-20T06:48:42;99036.28;;;10.02;49.38
11172;BME280;5642;50.830;12.082;2023-12-20T06:51:20;99107.91;;;10.51;49.37
11172;BME280;5642;50.830;12.082;2023-12-20T06:53:46;99083.78;;;10.41;49.12
11172;BME280;5642;50.830;12.082;2023-12-20T06:56:30;99110.50;;;10.51;48.95
11172;BME280;5642;50.830;12.082;2023-12-20T06:59:14;99051.50;;;10.16;49.12
11172;BME280;5642;50.830;12.082;2023-12-20T07:01:48;99094.16;;;10.44;49.15
11172;BME280;5642;50.830;12.082;2023-12-20T07:04:22;99091.66;;;10.41;49.30
11172;BME280;5642;50.830;12.082;2023-12-20T07:07:13;99081.63;;;10.29;49.16
11172;BME280;5642;50.830;12.082;2023-12-20T07:09:46;99095.50;;;10.31;49.42
11172;BME280;5642;50.830;12.082;2023-12-20T07:12:29;99041.78;;;9.95;49.26
11172;BME280;5642;50.830;12.082;2023-12-20T07:14:59;99021.34;;;9.81;49.31
11172;BME280;5642;50.830;12.082;2023-12-20T07:17:40;99068.97;;;9.91;49.28
11172;BME280;5642;50.830;12.082;2023-12-20T07:20:21;99100.31;;;9.92;49.42
11172;BME280;5642;50.830;12.082;2023-12-20T07:23:08;99099.69;;;9.86;49.27
11172;BME280;5642;50.830;12.082;2023-12-20T07:25:47;99058.84;;;9.55;49.46
11172;BME280;5642;50.830;12.082;2023-12-20T07:28:47;99068.59;;;9.50;49.50
11172;BME280;5642;50.830;12.082;2023-12-20T07:31:28;99108.72;;;9.75;49.33
11172;BME280;5642;50.830;12.082;2023-12-20T07:34:26;99076.28;;;9.55;49.69
11172;BME280;5642;50.830;12.082;2023-12-20T07:37:13;99132.13;;;9.80;49.61
11172;BME280;5642;50.830;12.082;2023-12-20T07:39:52;99094.19;;;9.67;49.53
11172;BME280;5642;50.830;12.082;2023-12-20T07:43:01;99126.97;;;9.77;49.56
11172;BME280;5642;50.830;12.082;2023-12-20T07:45:49;99125.28;;;9.76;49.96
11172;BME280;5642;50.830;12.082;2023-12-20T07:48:43;99041.16;;;9.37;49.67
11172;BME280;5642;50.830;12.082;2023-12-20T07:51:47;99057.13;;;9.54;49.61
11172;BME280;5642;50.830;12.082;2023-12-20T07:54:46;99090.44;;;9.74;49.49
11172;BME280;5642;50.830;12.082;2023-12-20T07:57:34;99109.75;;;9.96;49.50
11172;BME280;5642;50.830;12.082;2023-12-20T08:00:28;99089.00;;;9.92;49.31
11172;BME280;5642;50.830;12.082;2023-12-20T08:03:39;99097.66;;;9.94;49.31
11172;BME280;5642;50.830;12.082;2023-12-20T08:06:24;99103.75;;;9.94;49.53
11172;BME280;5642;50.830;12.082;2023-12-20T08:09:08;99088.59;;;9.77;49.66
11172;BME280;5642;50.830;12.082;2023-12-20T08:11:59;99084.78;;;9.61;49.57
11172;BME280;5642;50.830;12.082;2023-12-20T08:14:36;99052.38;;;9.39;49.56
11172;BME280;5642;50.830;12.082;2023-12-20T08:17:14;99050.75;;;9.36;49.56
11172;BME280;5642;50.830;12.082;2023-12-20T08:19:52;99167.63;;;10.13;49.77
11172;BME280;5642;50.830;12.082;2023-12-20T08:22:59;99138.34;;;10.02;49.40
11172;BME280;5642;50.830;12.082;2023-12-20T08:25:36;99099.69;;;9.86;49.39
11172;BME280;5642;50.830;12.082;2023-12-20T08:28:18;99162.91;;;10.25;49.32
11172;BME280;5642;50.830;12.082;2023-12-20T08:31:05;99086.84;;;9.78;49.18
11172;BME280;5642;50.830;12.082;2023-12-20T08:33:32;99059.84;;;9.51;49.51
11172;BME280;5642;50.830;12.082;2023-12-20T08:36:12;99145.69;;;9.91;49.51
11172;BME280;5642;50.830;12.082;2023-12-20T08:38:43;99093.84;;;9.51;49.54
11172;BME280;5642;50.830;12.082;2023-12-20T08:41:18;99133.97;;;9.76;49.76
11172;BME280;5642;50.830;12.082;2023-12-20T08:44:04;99178.94;;;9.88;49.66
11172;BME280;5642;50.830;12.082;2023-12-20T08:46:54;99142.22;;;9.64;49.97
11172;BME280;5642;50.830;12.082;2023-12-20T08:49:36;99120.00;;;9.51;49.97
11172;BME280;5642;50.830;12.082;2023-12-20T08:52:22;99149.88;;;9.70;49.88
11172;BME280;5642;50.830;12.082;2023-12-20T08:55:09;99105.41;;;9.44;49.79
11172;BME280;5642;50.830;12.082;2023-12-20T08:57:51;99081.88;;;9.44;49.41
11172;BME280;5642;50.830;12.082;2023-12-20T09:00:32;99097.84;;;9.88;49.38
11172;BME280;5642;50.830;12.082;2023-12-20T09:03:21;99102.66;;;10.26;49.24
11172;BME280;5642;50.830;12.082;2023-12-20T09:06:04;99089.41;;;10.31;48.99
11172;BME280;5642;50.830;12.082;2023-12-20T09:08:46;99138.41;;;10.75;49.02
11172;BME280;5642;50.830;12.082;2023-12-20T09:11:23;99139.81;;;10.85;48.86
11172;BME280;5642;50.830;12.082;2023-12-20T09:14:12;99123.47;;;10.79;48.76
11172;BME280;5642;50.830;12.082;2023-12-20T09:16:47;99101.63;;;10.78;48.61
11172;BME280;5642;50.830;12.082;2023-12-20T09:19:30;99051.91;;;10.53;48.83
11172;BME280;5642;50.830;12.082;2023-12-20T09:22:12;99139.63;;;11.13;48.90
11172;BME280;5642;50.830;12.082;2023-12-20T09:24:53;99123.38;;;11.04;48.78
11172;BME280;5642;50.830;12.082;2023-12-20T09:27:33;99078.44;;;10.68;48.86
11172;BME280;5642;50.830;12.082;2023-12-20T09:30:19;99126.25;;;10.97;48.84
11172;BME280;5642;50.830;12.082;2023-12-20T09:32:52;99084.41;;;10.73;48.80
11172;BME280;5642;50.830;12.082;2023-12-20T09:35:38;99067.25;;;10.64;48.67
11172;BME280;5642;50.830;12.082;2023-12-20T09:38:17;99128.56;;;11.05;48.57
11172;BME280;5642;50.830;12.082;2023-12-20T09:40:52;99138.44;;;10.98;48.97
11172;BME280;5642;50.830;12.082;2023-12-20T09:43:27;99037.03;;;10.31;48.76
11172;BME280;5642;50.830;12.082;2023-12-20T09:46:15;99144.41;;;10.79;48.82
11172;BME280;5642;50.830;12.082;2023-12-20T09:48:56;99148.44;;;10.64;49.25
11172;BME280;5642;50.830;12.082;2023-12-20T09:51:31;99045.91;;;10.02;49.08
11172;BME280;5642;50.830;12.082;2023-12-20T09:54:06;99108.94;;;10.45;48.92
11172;BME280;5642;50.830;12.082;2023-12-20T09:56:45;99107.63;;;10.58;48.93
11172;BME280;5642;50.830;12.082;2023-12-20T09:59:11;99046.06;;;10.47;48.88
11172;BME280;5642;50.830;12.082;2023-12-20T10:01:55;99057.44;;;10.69;48.70
11172;BME280;5642;50.830;12.082;2023-12-20T10:04:42;99019.34;;;10.60;48.40
11172;BME280;5642;50.830;12.082;2023-12-20T10:08:36;99107.28;;;11.36;48.20
11172;BME280;5642;50.830;12.082;2023-12-20T10:15:24;99009.50;;;10.67;48.68
11172;BME280;5642;50.830;12.082;2023-12-20T10:17:56;99005.81;;;10.73;48.42
11172;BME280;5642;50.830;12.082;2023-12-20T10:20:37;99012.00;;;10.70;48.67
11172;BME280;5642;50.830;12.082;2023-12-20T10:23:29;99001.53;;;10.47;48.74
11172;BME280;5642;50.830;12.082;2023-12-20T10:26:29;99105.88;;;11.04;48.69
11172;BME280;5642;50.830;12.082;2023-12-20T10:29:10;98966.88;;;10.40;49.11
11172;BME280;5642;50.830;12.082;2023-12-20T10:31:47;98983.19;;;11.56;48.75
11172;BME280;5642;50.830;12.082;2023-12-20T10:34:33;99036.69;;;13.28;48.43
11172;BME280;5642;50.830;12.082;2023-12-20T10:37:26;98984.00;;;14.48;48.05
11172;BME280;5642;50.830;12.082;2023-12-20T10:40:13;98990.22;;;16.00;47.89
11172;BME280;5642;50.830;12.082;2023-12-20T10:42:51;99043.13;;;17.40;47.36
11172;BME280;5642;50.830;12.082;2023-12-20T10:45:27;98956.28;;;17.85;47.43
11172;BME280;5642;50.830;12.082;2023-12-20T10:47:59;98938.31;;;18.64;47.17
11172;BME280;5642;50.830;12.082;2023-12-20T10:51:07;98944.16;;;19.65;46.55
11172;BME280;5642;50.830;12.082;2023-12-20T10:53:44;99012.00;;;20.94;46.80
11172;BME280;5642;50.830;12.082;2023-12-20T10:56:32;98996.47;;;21.54;46.48
11172;BME280;5642;50.830;12.082;2023-12-20T10:59:28;98964.31;;;21.98;46.19
11172;BME280;5642;50.830;12.082;2023-12-20T11:02:13;98950.81;;;22.51;45.91
11172;BME280;5642;50.830;12.082;2023-12-20T11:07:47;98953.00;;;23.35;45.39
11172;BME280;5642;50.830;12.082;2023-12-20T11:10:31;98953.88;;;23.55;45.08
11172;BME280;5642;50.830;12.082;2023-12-20T11:16:37;98966.47;;;24.11;45.37
11172;BME280;5642;50.830;12.082;2023-12-20T11:19:22;98929.47;;;24.06;45.06
11172;BME280;5642;50.830;12.082;2023-12-20T11:22:04;99007.81;;;24.55;44.96
11172;BME280;5642;50.830;12.082;2023-12-20T11:24:44;98918.56;;;24.17;44.68
11172;BME280;5642;50.830;12.082;2023-12-20T11:27:32;99006.09;;;24.64;44.75
11172;BME280;5642;50.830;12.082;2023-12-20T11:33:23;98923.47;;;23.75;44.36
11172;BME280;5642;50.830;12.082;2023-12-20T11:36:07;98910.09;;;23.27;43.90
11172;BME280;5642;50.830;12.082;2023-12-20T11:38:58;98947.94;;;23.42;43.53
11172;BME280;5642;50.830;12.082;2023-12-20T11:41:29;98899.31;;;22.70;42.76
11172;BME280;5642;50.830;12.082;2023-12-20T11:44:21;98909.53;;;22.55;42.52
11172;BME280;5642;50.830;12.082;2023-12-20T11:47:00;98878.19;;;22.17;41.61
11172;BME280;5642;50.830;12.082;2023-12-20T11:49:42;98912.31;;;21.93;40.99
11172;BME280;5642;50.830;12.082;2023-12-20T11:52:20;98896.06;;;21.33;40.20
11172;BME280;5642;50.830;12.082;2023-12-20T11:55:16;98853.53;;;20.68;39.87
11172;BME280;5642;50.830;12.082;2023-12-20T11:57:57;98892.63;;;20.12;39.60
11172;BME280;5642;50.830;12.082;2023-12-20T12:00:39;98937.34;;;19.49;40.24
11172;BME280;5642;50.830;12.082;2023-12-20T12:03:30;98929.72;;;18.48;40.70
11172;BME280;5642;50.830;12.082;2023-12-20T12:06:03;98933.59;;;17.68;41.16
11172;BME280;5642;50.830;12.082;2023-12-20T12:08:46;98940.06;;;16.98;41.89
11172;BME280;5642;50.830;12.082;2023-12-20T12:11:25;98917.78;;;16.18;42.65
11172;BME280;5642;50.830;12.082;2023-12-20T12:14:07;98939.97;;;15.57;43.00
11172;BME280;5642;50.830;12.082;2023-12-20T12:16:45;98943.25;;;15.01;43.47
11172;BME280;5642;50.830;12.082;2023-12-20T12:19:25;98947.94;;;14.49;43.69
11172;BME280;5642;50.830;12.082;2023-12-20T12:22:27;98955.19;;;13.95;44.03
11172;BME280;5642;50.830;12.082;2023-12-20T12:25:10;98968.72;;;13.55;44.38
11172;BME280;5642;50.830;12.082;2023-12-20T12:28:13;98929.41;;;12.99;44.88
11172;BME280;5642;50.830;12.082;2023-12-20T12:30:58;98929.09;;;12.69;45.14
11172;BME280;5642;50.830;12.082;2023-12-20T12:33:40;98930.25;;;12.44;45.01
11172;BME280;5642;50.830;12.082;2023-12-20T12:36:18;98915.06;;;12.13;45.16
11172;BME280;5642;50.830;12.082;2023-12-20T12:39:13;98900.00;;;11.98;45.18
11172;BME280;5642;50.830;12.082;2023-12-20T12:42:09;98969.06;;;12.19;45.12
11172;BME280;5642;50.830;12.082;2023-12-20T12:44:58;98970.06;;;12.16;45.46
11172;BME280;5642;50.830;12.082;2023-12-20T12:47:39;98954.84;;;12.04;45.06
11172;BME280;5642;50.830;12.082;2023-12-20T12:50:06;98934.31;;;12.14;44.90
11172;BME280;5642;50.830;12.082;2023-12-20T12:52:47;98963.53;;;12.25;44.84
11172;BME280;5642;50.830;12.082;2023-12-20T12:55:15;98936.84;;;12.15;44.88
11172;BME280;5642;50.830;12.082;2023-12-20T12:58:04;98896.88;;;11.70;45.05
11172;BME280;5642;50.830;12.082;2023-12-20T13:00:32;98883.78;;;11.50;44.94
11172;BME280;5642;50.830;12.082;2023-12-20T13:03:10;98876.00;;;11.48;45.07
11172;BME280;5642;50.830;12.082;2023-12-20T13:05:45;98929.69;;;11.60;45.31
11172;BME280;5642;50.830;12.082;2023-12-20T13:08:33;98884.25;;;11.39;45.07
11172;BME280;5642;50.830;12.082;2023-12-20T13:14:57;98895.06;;;11.31;45.36
11172;BME280;5642;50.830;12.082;2023-12-20T13:20:49;98915.38;;;11.47;45.32
11172;BME280;5642;50.830;12.082;2023-12-20T13:23:42;98915.97;;;11.33;45.58
11172;BME280;5642;50.830;12.082;2023-12-20T13:26:14;98907.53;;;11.26;45.60
11172;BME280;5642;50.830;12.082;2023-12-20T13:28:59;98878.53;;;11.09;45.52
11172;BME280;5642;50.830;12.082;2023-12-20T13:31:41;98810.69;;;10.61;45.39
11172;BME280;5642;50.830;12.082;2023-12-20T13:34:25;98906.94;;;11.20;45.78
11172;BME280;5642;50.830;12.082;2023-12-20T13:36:51;98896.50;;;11.18;45.38
11172;BME280;5642;50.830;12.082;2023-12-20T13:39:32;98899.66;;;11.06;45.58
11172;BME280;5642;50.830;12.082;2023-12-20T13:42:12;98818.53;;;10.61;45.75
11172;BME280;5642;50.830;12.082;2023-12-20T13:44:59;98863.78;;;10.86;45.50
11172;BME280;5642;50.830;12.082;2023-12-20T13:47:31;98888.13;;;10.88;45.57
11172;BME280;5642;50.830;12.082;2023-12-20T13:50:17;98878.06;;;10.79;45.66
11172;BME280;5642;50.830;12.082;2023-12-20T13:52:55;98800.47;;;10.33;45.67
11172;BME280;5642;50.830;12.082;2023-12-20T13:55:40;98836.53;;;10.48;45.64
11172;BME280;5642;50.830;12.082;2023-12-20T13:58:15;98846.09;;;10.49;45.62
11172;BME280;5642;50.830;12.082;2023-12-20T14:01:09;98813.88;;;10.26;45.80
11172;BME280;5642;50.830;12.082;2023-12-20T14:03:56;98820.00;;;10.25;45.73
11172;BME280;5642;50.830;12.082;2023-12-20T14:06:40;98819.34;;;10.19;45.81
11172;BME280;5642;50.830;12.082;2023-12-20T14:09:07;98900.63;;;10.60;45.89
11172;BME280;5642;50.830;12.082;2023-12-20T14:19:07;98884.84;;;10.16;46.23
11172;BME280;5642;50.830;12.082;2023-12-20T14:21:36;98906.16;;;10.31;46.07
11172;BME280;5642;50.830;12.082;2023-12-20T14:27:50;98916.50;;;10.10;46.30
11172;BME280;5642;50.830;12.082;2023-12-20T14:30:35;98837.56;;;9.76;46.10
11172;BME280;5642;50.830;12.082;2023-12-20T14:37:08;98886.94;;;9.85;46.33
11172;BME280;5642;50.830;12.082;2023-12-20T14:39:42;98888.56;;;9.88;46.22
11172;BME280;5642;50.830;12.082;2023-12-20T14:42:11;98908.50;;;9.92;46.22
11172;BME280;5642;50.830;12.082;2023-12-20T14:45:02;98906.81;;;9.89;46.49
11172;BME280;5642;50.830;12.082;2023-12-20T14:47:51;98892.44;;;9.77;46.02
11172;BME280;5642;50.830;12.082;2023-12-20T14:51:05;98922.69;;;9.85;46.30
11172;BME280;5642;50.830;12.082;2023-12-20T14:53:51;98910.63;;;9.80;46.24